Time;durP1;ratioP1;P1;durP2;ratioP2;P2;SDS_P1;SDS_P2;PMS_P1;PMS_P2;Temp;Humidity;BMP_temperature;BMP_pressure;BME280_temperature;BME280_humidity;BME280_pressure;Samples;Min_cycle;Max_cycle;Signal;HPM_P1;HPM_P2
2022/01/24 00:01:17;;;;;;;10.70;6.90;;;;;;;0.62;87.39;101145.38;1744764;81;21106;-67
2022/01/24 00:03:44;;;;;;;11.88;6.80;;;;;;;0.59;87.44;101144.91;1768081;79;21510;-68
2022/01/24 00:06:14;;;;;;;9.53;6.10;;;;;;;0.60;87.48;101151.77;1766890;79;21093;-68
2022/01/24 00:08:39;;;;;;;9.83;6.10;;;;;;;0.58;87.33;101148.30;1752865;81;21152;-69
2022/01/24 00:11:10;;;;;;;8.23;5.90;;;;;;;0.54;87.46;101152.96;1764738;79;21807;-68
2022/01/24 00:16:23;;;;;;;7.90;5.97;;;;;;;0.53;87.55;101149.06;1774312;79;21176;-68
2022/01/24 00:26:56;;;;;;;9.85;6.50;;;;;;;0.56;87.71;101147.44;1766009;79;21166;-68
2022/01/24 00:29:25;;;;;;;8.90;6.05;;;;;;;0.58;87.63;101152.16;1743460;81;21100;-68
2022/01/24 00:31:55;;;;;;;7.75;5.72;;;;;;;0.56;87.64;101146.55;1763100;79;21119;-68
2022/01/24 00:34:27;;;;;;;9.05;6.12;;;;;;;0.54;87.62;101151.67;1740566;81;21915;-68
2022/01/24 00:36:51;;;;;;;9.65;6.08;;;;;;;0.54;87.71;101151.67;1766717;79;21101;-68
2022/01/24 00:39:19;;;;;;;;;;;;;;;0.54;87.83;101163.24;1780878;79;21105;-68
2022/01/24 00:47:16;;;;;;;10.63;6.45;;;;;;;0.59;87.82;101170.62;1777683;79;21539;-68
2022/01/24 00:54:54;;;;;;;10.32;6.15;;;;;;;0.70;87.88;101159.63;1777656;79;21059;-68
2022/01/24 00:57:22;;;;;;;8.80;6.00;;;;;;;0.68;87.78;101162.61;1775734;79;21100;-68
2022/01/24 00:59:49;;;;;;;;;;;;;;;0.69;87.86;101172.04;1779070;79;21088;-69
2022/01/24 01:02:17;;;;;;;9.00;6.92;;;;;;;0.72;87.95;101168.23;1741581;81;20212;-68
2022/01/24 01:05:03;;;;;;;11.18;6.25;;;;;;;0.73;88.04;101159.66;1766048;79;21602;-68
2022/01/24 01:18:17;;;;;;;14.18;7.50;;;;;;;0.70;87.91;101128.77;1708106;81;21223;-67
2022/01/24 01:23:31;;;;;;;9.15;6.12;;;;;;;0.71;87.99;101145.95;1710029;83;21172;-67
2022/01/24 01:26:02;;;;;;;12.30;6.08;;;;;;;0.73;88.13;101144.24;1704299;83;21153;-67
2022/01/24 01:28:29;;;;;;;7.95;5.55;;;;;;;0.71;88.03;101139.52;1707152;83;21737;-67
2022/01/24 01:31:00;;;;;;;8.23;6.22;;;;;;;0.71;88.05;101153.66;1706063;81;21713;-67
2022/01/24 01:34:47;;;;;;;8.58;5.83;;;;;;;0.71;88.09;101147.23;1701953;83;21255;-68
2022/01/24 01:36:12;;;;;;;8.38;6.45;;;;;;;0.70;88.11;101157.05;1674852;81;21142;-67
2022/01/24 01:52:36;;;;;;;9.98;6.37;;;;;;;0.68;88.35;101136.91;1676940;84;21142;-68
2022/01/24 01:55:10;;;;;;;8.18;6.33;;;;;;;0.72;88.35;101127.09;1669030;85;21188;-68
2022/01/24 01:57:23;;;;;;;10.58;6.55;;;;;;;0.74;88.47;101130.56;1647391;85;21179;-67
2022/01/24 01:59:50;;;;;;;9.08;6.10;;;;;;;0.80;88.52;101124.23;1664989;85;21147;-68
2022/01/24 02:02:17;;;;;;;9.50;6.60;;;;;;;0.83;88.39;101121.70;1687568;83;21151;-68
2022/01/24 02:04:43;;;;;;;7.78;5.87;;;;;;;0.84;88.37;101122.13;1659021;84;21152;-67
2022/01/24 02:07:13;;;;;;;9.45;6.90;;;;;;;0.84;88.28;101129.84;1671003;83;21195;-67
2022/01/24 02:09:42;;;;;;;13.38;6.92;;;;;;;0.80;88.20;101121.23;1666715;84;21072;-67
2022/01/24 02:12:10;;;;;;;11.28;6.87;;;;;;;0.78;88.22;101120.76;1652884;85;21158;-70
2022/01/24 02:14:43;;;;;;;10.28;6.42;;;;;;;0.75;88.22;101116.43;1680470;84;21536;-67
2022/01/24 02:17:12;;;;;;;10.28;6.17;;;;;;;0.76;88.37;101116.03;1663947;81;21665;-68
2022/01/24 02:19:52;;;;;;;8.33;6.42;;;;;;;0.76;88.32;101110.89;1703885;81;21834;-68
2022/01/24 02:24:43;;;;;;;8.25;6.15;;;;;;;0.72;88.46;101103.95;1761467;80;21738;-68
2022/01/24 02:27:09;;;;;;;10.30;6.75;;;;;;;0.70;88.53;101110.78;1760250;80;21101;-68
2022/01/24 02:32:09;;;;;;;7.80;5.83;;;;;;;0.72;88.63;101103.95;1761273;79;21044;-68
2022/01/24 02:34:40;;;;;;;8.40;5.90;;;;;;;0.70;88.56;101108.20;1772188;79;20965;-68
2022/01/24 02:37:10;;;;;;;10.65;5.75;;;;;;;0.73;88.50;101112.10;1771173;79;21164;-68
2022/01/24 02:39:48;;;;;;;8.00;5.83;;;;;;;0.71;88.43;101112.53;1761695;79;21003;-68
2022/01/24 02:51:29;;;;;;;8.70;6.33;;;;;;;0.77;88.73;101086.91;1766716;79;21152;-67
2022/01/24 02:53:04;;;;;;;8.10;5.55;;;;;;;0.79;88.74;101095.51;1739571;79;21130;-67
2022/01/24 02:55:30;;;;;;;9.33;7.03;;;;;;;0.81;88.83;101092.52;1740205;81;21026;-68
2022/01/24 02:57:57;;;;;;;8.23;5.75;;;;;;;0.85;88.97;101091.31;1766722;79;21328;-69
2022/01/24 03:00:24;;;;;;;10.30;6.72;;;;;;;0.89;88.89;101085.34;1760115;80;21512;-67
2022/01/24 03:02:57;;;;;;;9.15;6.72;;;;;;;0.90;88.90;101099.10;1740014;81;21394;-67
2022/01/24 03:05:24;;;;;;;10.10;6.58;;;;;;;0.89;88.84;101102.49;1771714;79;21049;-68
2022/01/24 03:07:51;;;;;;;10.10;7.15;;;;;;;0.89;88.86;101094.35;1771669;79;22379;-68
2022/01/24 03:10:35;;;;;;;9.53;6.37;;;;;;;0.92;89.01;101097.39;1743599;81;21800;-68
2022/01/24 03:15:41;;;;;;;8.85;6.67;;;;;;;0.93;88.90;101094.00;1756139;81;21106;-68
2022/01/24 03:18:08;;;;;;;8.68;6.10;;;;;;;0.93;88.73;101091.42;1756784;79;22301;-68
2022/01/24 03:20:34;;;;;;;7.47;5.95;;;;;;;0.91;88.78;101096.96;1765329;79;21122;-68
2022/01/24 03:23:02;;;;;;;8.70;6.22;;;;;;;0.90;88.82;101087.53;1773196;79;21108;-68
2022/01/24 03:25:29;;;;;;;9.43;6.10;;;;;;;0.93;88.91;101086.28;1775826;79;21025;-68
2022/01/24 03:27:57;;;;;;;9.25;5.72;;;;;;;0.93;88.87;101091.42;1764418;79;21204;-67
2022/01/24 03:30:24;;;;;;;8.10;5.75;;;;;;;0.92;88.88;101094.82;1773454;79;21068;-68
2022/01/24 03:32:52;;;;;;;9.85;6.47;;;;;;;0.92;88.90;101083.25;1752690;79;21195;-67
2022/01/24 03:35:18;;;;;;;;;;;;;;;0.90;88.94;101087.53;1706332;81;21659;-68
2022/01/24 03:37:45;;;;;;;8.25;6.10;;;;;;;0.89;89.01;101096.92;1741874;80;20260;-68
2022/01/24 03:40:11;;;;;;;8.87;6.70;;;;;;;0.89;89.13;101093.49;1758859;80;21398;-68
2022/01/24 03:42:38;;;;;;;9.30;6.07;;;;;;;0.92;89.21;101102.53;1734488;81;21085;-69
2022/01/24 03:45:09;;;;;;;10.15;6.70;;;;;;;0.96;89.21;101090.61;1761297;80;22329;-67
2022/01/24 03:50:09;;;;;;;10.95;6.72;;;;;;;0.95;89.10;101082.00;1743000;81;21076;-67
2022/01/24 03:52:36;;;;;;;8.18;5.83;;;;;;;0.93;89.05;101085.00;1751010;80;21140;-68
2022/01/24 03:55:05;;;;;;;7.70;5.55;;;;;;;0.93;89.09;101081.14;1731881;81;21854;-67
2022/01/24 03:57:31;;;;;;;7.53;5.03;;;;;;;0.92;89.08;101075.53;1758464;80;21655;-68
2022/01/24 03:59:58;;;;;;;8.98;5.25;;;;;;;0.92;89.10;101088.81;1727905;81;21272;-68
2022/01/24 04:02:27;;;;;;;7.67;5.47;;;;;;;0.86;89.05;101075.02;1725613;81;22641;-68
2022/01/24 04:04:54;;;;;;;5.92;4.70;;;;;;;0.84;89.10;101084.84;1732909;81;21416;-68
2022/01/24 04:07:21;;;;;;;5.42;4.15;;;;;;;0.81;89.19;101083.52;1731783;81;21544;-68
2022/01/24 04:09:48;;;;;;;8.73;4.60;;;;;;;0.81;89.28;101083.52;1736278;81;21245;-68
2022/01/24 04:12:15;;;;;;;5.40;4.17;;;;;;;0.80;89.30;101074.09;1750641;81;21166;-67
2022/01/24 04:15:06;;;;;;;7.17;4.42;;;;;;;0.79;89.38;101083.94;1736732;80;21172;-67
2022/01/24 04:22:16;;;;;;;7.10;5.42;;;;;;;0.80;89.43;101076.23;1756589;80;21331;-67
2022/01/24 04:24:44;;;;;;;8.05;5.30;;;;;;;0.84;89.58;101086.12;1757736;80;21022;-68
2022/01/24 04:27:13;;;;;;;8.65;5.03;;;;;;;0.84;89.57;101077.13;1758414;80;21076;-67
2022/01/24 04:29:40;;;;;;;6.70;4.75;;;;;;;0.83;89.56;101076.70;1757935;80;21042;-68
2022/01/24 04:32:08;;;;;;;5.60;5.00;;;;;;;0.81;89.56;101080.55;1761667;80;21149;-68
2022/01/24 04:34:35;;;;;;;8.45;4.97;;;;;;;0.83;89.67;101077.98;1761048;79;22407;-69
2022/01/24 04:37:02;;;;;;;6.12;4.67;;;;;;;0.83;89.64;101074.13;1759541;80;21075;-68
2022/01/24 04:39:29;;;;;;;6.60;4.80;;;;;;;0.83;89.67;101077.98;1742369;81;21136;-68
2022/01/24 04:41:58;;;;;;;6.70;4.70;;;;;;;0.82;89.67;101085.27;1768601;79;21141;-67
2022/01/24 04:44:48;;;;;;;7.42;5.08;;;;;;;0.80;89.72;101074.09;1743127;81;21012;-68
2022/01/24 04:47:14;;;;;;;7.10;4.90;;;;;;;0.82;89.80;101085.27;1760526;79;21155;-68
2022/01/24 04:54:42;;;;;;;6.65;4.28;;;;;;;0.82;89.96;101072.41;1774166;79;21127;-68
2022/01/24 04:57:16;;;;;;;5.72;4.12;;;;;;;0.85;89.98;101077.59;1753048;79;22336;-68
2022/01/24 04:59:47;;;;;;;6.00;4.42;;;;;;;0.85;89.90;101080.16;1752087;79;21147;-67
2022/01/24 05:02:14;;;;;;;5.53;4.30;;;;;;;0.84;89.85;101075.84;1749991;79;21151;-67
2022/01/24 05:04:41;;;;;;;5.90;4.22;;;;;;;0.83;89.88;101075.41;1740362;81;21084;-68
2022/01/24 05:07:08;;;;;;;6.50;4.53;;;;;;;0.81;89.89;101074.13;1743872;80;21121;-68
2022/01/24 05:09:40;;;;;;;6.93;4.90;;;;;;;0.82;89.98;101068.13;1757440;81;21083;-68
2022/01/24 05:25:51;;;;;;;5.35;4.28;;;;;;;0.83;90.19;101068.98;1747946;81;21199;-67
2022/01/24 05:28:17;;;;;;;5.10;4.57;;;;;;;0.86;90.21;101071.59;1772610;79;21092;-68
2022/01/24 05:30:44;;;;;;;4.78;4.10;;;;;;;0.89;90.25;101085.34;1778972;79;22009;-68
2022/01/24 05:33:11;;;;;;;6.00;4.40;;;;;;;0.94;90.38;101089.28;1774281;79;22298;-67
2022/01/24 05:35:37;;;;;;;21.62;12.70;;;;;;;0.94;90.28;101099.57;1743161;81;21159;-68
2022/01/24 05:38:04;;;;;;;20.88;12.53;;;;;;;0.96;90.32;101087.61;1729493;81;21694;-67
2022/01/24 05:40:31;;;;;;;8.48;6.60;;;;;;;0.99;90.30;101091.50;1752560;81;21045;-68
2022/01/24 05:42:58;;;;;;;9.53;6.30;;;;;;;1.00;90.28;101093.22;1729287;81;21094;-67
2022/01/24 05:45:25;;;;;;;8.07;5.77;;;;;;;0.99;90.29;101096.64;1735620;80;21836;-68
2022/01/24 05:47:52;;;;;;;8.03;5.80;;;;;;;0.99;90.28;101092.79;1749252;80;21114;-67
2022/01/24 05:50:19;;;;;;;6.53;4.75;;;;;;;1.00;90.35;101097.08;1740597;81;21785;-67
2022/01/24 05:52:45;;;;;;;7.10;5.20;;;;;;;1.02;90.38;101096.69;1745913;79;21099;-68
2022/01/24 05:55:12;;;;;;;7.92;5.65;;;;;;;1.03;90.39;101095.83;1763861;80;21077;-68
2022/01/24 05:57:39;;;;;;;6.33;4.60;;;;;;;1.03;90.33;101093.26;1743214;81;21104;-68
2022/01/24 06:00:10;;;;;;;7.40;4.60;;;;;;;1.04;90.36;101098.87;1752022;80;21017;-68
2022/01/24 06:02:37;;;;;;;6.58;4.33;;;;;;;1.03;90.33;101089.41;1744721;81;21779;-67
2022/01/24 06:05:04;;;;;;;6.15;4.62;;;;;;;1.03;90.41;101093.26;1743377;80;21392;-67
2022/01/24 06:07:31;;;;;;;6.20;5.17;;;;;;;1.05;90.46;101088.16;1748478;81;21577;-69
2022/01/24 06:09:57;;;;;;;6.75;5.25;;;;;;;1.05;90.48;101091.58;1745179;81;21085;-68
2022/01/24 06:12:25;;;;;;;5.97;5.13;;;;;;;1.05;90.49;101093.30;1749123;80;21642;-69
2022/01/24 06:14:51;;;;;;;;;;;;;;;1.08;90.70;101089.05;1733881;81;22390;-69
2022/01/24 06:17:18;;;;;;;7.73;4.67;;;;;;;1.08;90.60;101085.61;1753055;80;20237;-69
2022/01/24 06:19:45;;;;;;;7.00;4.65;;;;;;;1.09;90.68;101080.51;1730334;81;21150;-69
2022/01/24 06:22:12;;;;;;;7.30;5.22;;;;;;;1.10;90.67;101082.22;1732961;81;21125;-69
2022/01/24 06:24:39;;;;;;;6.65;5.05;;;;;;;1.13;90.71;101077.97;1743773;81;21138;-69
2022/01/24 06:27:05;;;;;;;6.50;4.58;;;;;;;1.13;90.73;101077.97;1741365;81;21116;-69
2022/01/24 06:29:32;;;;;;;6.53;4.50;;;;;;;1.14;90.76;101081.83;1742428;81;21563;-69
2022/01/24 06:32:01;;;;;;;5.87;4.47;;;;;;;1.16;90.82;101074.14;1738237;81;21648;-69
2022/01/24 06:34:28;;;;;;;6.87;5.10;;;;;;;1.17;90.85;101069.44;1752578;79;21078;-69
2022/01/24 06:36:55;;;;;;;5.55;4.00;;;;;;;1.19;90.87;101072.89;1750002;79;20996;-68
2022/01/24 06:39:22;;;;;;;7.20;5.23;;;;;;;1.22;90.86;101070.36;1740561;81;22562;-69
2022/01/24 06:42:05;;;;;;;6.35;4.65;;;;;;;1.21;90.84;101071.22;1772077;79;21849;-69
2022/01/24 06:44:19;;;;;;;7.22;4.65;;;;;;;1.24;90.89;101074.68;1754665;81;21073;-68
2022/01/24 06:46:46;;;;;;;11.25;4.72;;;;;;;1.25;90.82;101069.11;1754836;79;21028;-68
2022/01/24 06:49:18;;;;;;;12.13;5.20;;;;;;;1.21;90.88;101074.64;1743140;81;21716;-68
2022/01/24 06:51:45;;;;;;;8.73;5.22;;;;;;;1.22;90.96;101085.80;1764175;79;21595;-68
2022/01/24 06:54:14;;;;;;;17.70;9.68;;;;;;;1.21;90.96;101087.52;1737158;81;21480;-69
2022/01/24 06:56:41;;;;;;;20.65;9.83;;;;;;;1.23;91.04;101083.66;1764928;79;21049;-70
2022/01/24 06:59:08;;;;;;;7.70;6.47;;;;;;;1.24;91.06;101091.84;1764382;79;21427;-68
2022/01/24 07:01:34;;;;;;;8.13;6.45;;;;;;;1.26;91.11;101095.27;1774785;79;21323;-68
2022/01/24 07:04:01;;;;;;;8.93;5.67;;;;;;;1.26;91.11;101095.27;1772752;79;21103;-69
2022/01/24 07:06:27;;;;;;;7.20;5.90;;;;;;;1.26;91.15;101099.13;1766249;79;21541;-67
2022/01/24 07:08:54;;;;;;;6.05;5.17;;;;;;;1.29;91.22;101092.77;1745472;81;21521;-68
2022/01/24 07:11:22;;;;;;;10.98;5.70;;;;;;;1.32;91.25;101096.66;1769697;79;21017;-69
2022/01/24 07:13:50;;;;;;;7.03;5.33;;;;;;;1.35;91.30;101103.12;1776788;79;21112;-69
2022/01/24 07:16:17;;;;;;;8.18;6.03;;;;;;;1.36;91.25;101107.42;1769378;79;21079;-69
2022/01/24 07:18:58;;;;;;;27.07;11.18;;;;;;;1.36;91.22;101107.42;1770976;79;21180;-69
2022/01/24 07:21:26;;;;;;;36.88;14.58;;;;;;;1.37;91.24;101103.98;1778690;79;21152;-68
2022/01/24 07:23:52;;;;;;;12.80;8.18;;;;;;;1.39;91.34;101106.16;1754816;80;21189;-69
2022/01/24 07:26:19;;;;;;;11.63;7.25;;;;;;;1.42;91.32;101112.63;1773205;79;21808;-68
2022/01/24 07:28:46;;;;;;;12.05;7.12;;;;;;;1.35;91.40;101090.26;1767185;79;21059;-68
2022/01/24 07:31:13;;;;;;;14.50;8.63;;;;;;;1.47;91.37;101107.55;1779056;79;21001;-69
2022/01/24 07:33:40;;;;;;;15.58;9.75;;;;;;;1.49;91.42;101105.88;1760536;79;21125;-69
2022/01/24 07:36:07;;;;;;;13.90;8.95;;;;;;;1.52;91.46;101105.91;1760991;80;20989;-68
2022/01/24 07:38:36;;;;;;;16.73;11.63;;;;;;;1.55;91.46;101104.22;1767849;80;21036;-68
2022/01/24 07:41:03;;;;;;;16.87;11.10;;;;;;;1.59;91.45;101099.11;1747791;80;22349;-68
2022/01/24 07:43:30;;;;;;;15.70;8.58;;;;;;;1.62;91.42;101106.86;1781939;79;21048;-68
2022/01/24 07:45:58;;;;;;;13.85;8.25;;;;;;;1.65;91.48;101105.60;1771191;79;21144;-68
2022/01/24 07:48:25;;;;;;;11.95;8.50;;;;;;;1.69;91.49;101109.95;1773354;79;21005;-68
2022/01/24 07:51:08;;;;;;;16.55;10.48;;;;;;;1.74;91.51;101100.58;1769104;79;21283;-68
2022/01/24 07:53:33;;;;;;;28.67;14.35;;;;;;;1.77;91.47;101099.32;1773978;79;21779;-68
2022/01/24 07:56:05;;;;;;;25.57;13.05;;;;;;;1.82;91.56;101109.66;1771583;79;21241;-68
2022/01/24 07:58:32;;;;;;;14.75;10.72;;;;;;;1.87;91.59;101112.72;1751633;81;21298;-68
2022/01/24 08:01:03;;;;;;;11.15;7.42;;;;;;;1.92;91.64;101112.34;1765622;79;22200;-68
2022/01/24 08:03:30;;;;;;;11.22;6.78;;;;;;;1.93;91.55;101106.37;1771950;79;21250;-68
2022/01/24 08:05:59;;;;;;;11.55;8.15;;;;;;;1.97;91.66;101102.95;1769891;79;26789;-68
2022/01/24 08:08:27;;;;;;;8.50;6.12;;;;;;;2.01;91.70;101104.70;1768217;79;21300;-68
2022/01/24 08:10:54;;;;;;;9.10;6.87;;;;;;;2.06;91.58;101101.32;1761535;79;21239;-68
2022/01/24 08:13:21;;;;;;;9.93;6.95;;;;;;;2.08;91.46;101102.20;1738841;81;21060;-68
2022/01/24 08:15:49;;;;;;;9.73;6.65;;;;;;;2.10;91.37;101106.92;1762461;79;21005;-67
2022/01/24 08:18:16;;;;;;;8.33;5.55;;;;;;;2.07;91.35;101100.46;1741149;81;21073;-68
2022/01/24 08:20:43;;;;;;;8.75;5.90;;;;;;;2.06;91.38;101103.90;1763221;79;20954;-68
2022/01/24 08:23:13;;;;;;;7.58;5.50;;;;;;;2.05;91.40;101100.89;1769679;79;26754;-68
2022/01/24 08:25:41;;;;;;;6.33;4.78;;;;;;;2.07;91.49;101104.33;1779012;79;21001;-68
2022/01/24 08:28:07;;;;;;;;;;;;;;;2.09;91.45;101107.79;1772994;79;21148;-68
2022/01/24 08:30:35;;;;;;;8.10;5.75;;;;;;;2.08;91.42;101106.08;1779330;79;21068;-69
2022/01/24 08:33:02;;;;;;;7.45;5.40;;;;;;;2.09;91.46;101110.36;1759772;81;20996;-69
2022/01/24 08:35:32;;;;;;;8.08;5.53;;;;;;;2.08;91.51;101109.94;1772202;79;21319;-68
2022/01/24 08:37:59;;;;;;;7.53;5.80;;;;;;;2.10;91.56;101106.92;1741769;81;21062;-68
2022/01/24 08:40:30;;;;;;;14.55;8.80;;;;;;;2.14;91.67;101104.84;1757701;80;21155;-69
2022/01/24 08:43:04;;;;;;;12.55;8.75;;;;;;;2.19;91.67;101105.75;1761468;80;21725;-68
2022/01/24 08:45:50;;;;;;;13.75;10.45;;;;;;;2.21;91.59;101114.33;1754171;79;21091;-68
2022/01/24 08:48:19;;;;;;;14.83;10.82;;;;;;;2.22;91.51;101110.92;1765562;80;21058;-70
2022/01/24 08:50:52;;;;;;;15.38;11.57;;;;;;;2.21;91.55;101110.07;1755884;79;21026;-68
2022/01/24 08:53:18;;;;;;;12.70;10.10;;;;;;;2.25;91.60;101107.09;1761567;79;21168;-68
2022/01/24 08:55:46;;;;;;;13.30;9.03;;;;;;;2.29;91.73;101107.53;1761586;80;21358;-69
2022/01/24 08:58:15;;;;;;;16.95;14.07;;;;;;;2.35;91.79;101098.59;1757559;80;21235;-68
2022/01/24 09:00:45;;;;;;;21.17;14.93;;;;;;;2.39;91.71;101099.04;1773624;79;21143;-68
2022/01/24 09:03:14;;;;;;;14.90;9.33;;;;;;;2.49;91.83;101096.53;1778247;79;21060;-68
2022/01/24 09:05:41;;;;;;;9.00;7.33;;;;;;;2.57;91.90;101097.45;1772613;78;21071;-68
2022/01/24 09:08:10;;;;;;;9.50;7.25;;;;;;;2.63;91.84;101097.49;1777175;79;22192;-68
2022/01/24 09:10:39;;;;;;;9.03;6.90;;;;;;;2.66;91.73;101096.22;1760209;79;21109;-68
2022/01/24 09:13:08;;;;;;;8.38;6.58;;;;;;;2.70;91.73;101094.12;1776958;79;21096;-69
2022/01/24 09:15:38;;;;;;;7.03;5.25;;;;;;;2.77;91.74;101097.16;1744775;81;21069;-68
2022/01/24 09:18:05;;;;;;;8.53;5.87;;;;;;;2.84;91.85;101102.80;1772055;79;21413;-68
2022/01/24 09:20:34;;;;;;;7.95;5.58;;;;;;;2.91;91.90;101102.01;1774859;79;22407;-69
2022/01/24 09:23:02;;;;;;;9.78;5.85;;;;;;;3.01;92.00;101104.63;1774913;79;21716;-68
2022/01/24 09:25:29;;;;;;;10.00;6.67;;;;;;;3.12;92.14;101102.97;1768050;79;21068;-68
2022/01/24 09:27:57;;;;;;;8.85;6.42;;;;;;;3.15;91.84;101108.15;1774635;79;21110;-68
2022/01/24 09:30:25;;;;;;;7.65;6.15;;;;;;;3.17;91.82;101108.17;1784089;79;21191;-69
2022/01/24 09:32:52;;;;;;;11.18;6.50;;;;;;;3.13;91.75;101113.72;1779021;79;22264;-68
2022/01/24 09:35:20;;;;;;;13.13;6.92;;;;;;;3.14;91.74;101112.88;1770595;79;22394;-69
2022/01/24 09:37:54;;;;;;;9.93;6.50;;;;;;;3.17;91.90;101105.59;1748409;80;21170;-69
2022/01/24 09:40:24;;;;;;;7.67;5.30;;;;;;;3.15;91.73;101113.31;1753713;80;21690;-69
2022/01/24 09:42:52;;;;;;;9.65;6.03;;;;;;;3.16;91.80;101111.16;1747583;79;20977;-68
2022/01/24 09:45:20;;;;;;;12.20;6.85;;;;;;;3.19;91.97;101109.88;1751697;81;21136;-68
2022/01/24 09:47:47;;;;;;;19.52;7.45;;;;;;;3.21;92.02;101103.02;1769529;79;21201;-69
2022/01/24 09:50:16;;;;;;;14.03;5.62;;;;;;;3.24;91.98;101109.47;1740325;80;26615;-68
2022/01/24 09:53:04;;;;;;;8.48;5.10;;;;;;;3.26;92.05;101106.48;1734974;81;21132;-68
2022/01/24 09:55:33;;;;;;;9.95;4.70;;;;;;;3.31;92.10;101101.36;1762576;79;21076;-68
2022/01/24 09:58:01;;;;;;;6.85;4.70;;;;;;;3.34;92.14;101104.80;1752240;79;21658;-69
2022/01/24 10:00:29;;;;;;;;;;;;;;;3.39;92.02;101106.53;1748528;81;21635;-68
2022/01/24 10:03:13;;;;;;;7.12;3.98;;;;;;;3.41;91.99;101104.82;1738299;80;21075;-68
2022/01/24 10:05:38;;;;;;;4.67;3.22;;;;;;;3.48;92.19;101101.42;1745520;80;21068;-69
2022/01/24 10:08:07;;;;;;;;;;;;;;;3.55;92.17;101100.56;1769613;79;21048;-69
2022/01/24 10:10:41;;;;;;;7.15;4.20;;;;;;;3.55;91.97;101094.11;1764305;79;22257;-69
2022/01/24 10:16:43;;;;;;;9.13;3.30;;;;;;;3.58;92.03;101095.41;1756279;80;21610;-69
2022/01/24 10:19:10;;;;;;;6.33;3.62;;;;;;;3.64;92.15;101087.70;1731781;81;21094;-69
2022/01/24 10:21:40;;;;;;;4.78;3.40;;;;;;;3.81;92.48;101082.15;1752420;81;21080;-69
2022/01/24 10:24:09;;;;;;;11.10;3.35;;;;;;;3.96;92.34;101079.16;1747200;81;21375;-70
2022/01/24 10:26:36;;;;;;;5.12;3.60;;;;;;;4.02;92.12;101080.45;1725231;81;21113;-69
2022/01/24 10:29:12;;;;;;;7.60;3.90;;;;;;;4.23;92.54;101074.02;1748945;80;21084;-69
2022/01/24 10:31:48;;;;;;;10.55;3.35;;;;;;;4.36;92.28;101071.42;1732049;81;21096;-69
2022/01/24 10:34:22;;;;;;;9.18;3.47;;;;;;;4.40;92.00;101066.26;1734477;81;21105;-69
2022/01/24 10:36:52;;;;;;;13.53;3.62;;;;;;;4.47;92.02;101064.52;1752029;79;22169;-69
2022/01/24 10:39:43;;;;;;;11.10;4.00;;;;;;;4.52;92.01;101059.36;1727138;82;21227;-69
2022/01/24 10:42:41;;;;;;;5.65;3.62;;;;;;;4.52;91.89;101055.03;1723005;82;22012;-69
2022/01/24 10:45:20;;;;;;;3.67;3.10;;;;;;;4.52;91.89;101052.45;1713978;82;21754;-68
2022/01/24 10:47:51;;;;;;;4.45;3.30;;;;;;;4.48;91.72;101042.95;1709467;82;21165;-68
2022/01/24 10:50:27;;;;;;;5.00;3.08;;;;;;;4.45;91.78;101050.72;1731142;81;21193;-69
2022/01/24 10:52:56;;;;;;;5.87;3.40;;;;;;;4.48;92.01;101045.54;1720957;81;21030;-70
2022/01/24 10:55:29;;;;;;;5.25;3.40;;;;;;;4.55;92.14;101052.44;1730116;81;21021;-70
2022/01/24 10:58:08;;;;;;;6.33;3.98;;;;;;;4.55;91.96;101039.51;1731189;81;21109;-69
2022/01/24 11:00:37;;;;;;;3.50;2.92;;;;;;;4.55;91.86;101031.75;1740016;81;21002;-69
2022/01/24 11:03:06;;;;;;;4.62;3.85;;;;;;;4.48;91.54;101035.19;1739687;81;21185;-69
2022/01/24 11:05:39;;;;;;;6.55;3.62;;;;;;;4.46;91.61;101025.30;1718132;81;21060;-69
2022/01/24 11:08:10;;;;;;;3.75;3.15;;;;;;;4.51;91.96;101024.88;1711365;82;22204;-69
2022/01/24 11:10:46;;;;;;;5.55;3.90;;;;;;;4.56;91.90;101023.11;1708099;82;21112;-69
2022/01/24 11:13:17;;;;;;;4.10;3.17;;;;;;;4.52;91.54;101024.00;1732045;81;21773;-69
2022/01/24 11:16:00;;;;;;;7.90;4.90;;;;;;;4.46;91.38;101021.42;1729745;82;22479;-69
2022/01/24 11:18:29;;;;;;;4.60;3.37;;;;;;;4.40;91.40;101021.44;1706310;81;21975;-69
2022/01/24 11:21:05;;;;;;;7.17;4.05;;;;;;;4.37;91.36;101014.55;1738271;81;21018;-69
2022/01/24 11:23:25;;;;;;;4.62;3.60;;;;;;;4.33;91.34;101017.98;1733650;81;21110;-69
2022/01/24 11:25:55;;;;;;;5.08;3.95;;;;;;;4.33;91.51;101015.83;1738084;81;21125;-69
2022/01/24 11:28:22;;;;;;;4.45;3.45;;;;;;;4.31;91.54;101013.23;1699858;82;21137;-69
2022/01/24 11:30:57;;;;;;;3.90;3.27;;;;;;;4.29;91.52;101012.84;1708461;82;21315;-69
2022/01/24 11:33:34;;;;;;;3.80;3.33;;;;;;;4.26;91.46;101015.84;1720531;81;21155;-69
2022/01/24 11:36:03;;;;;;;3.60;3.12;;;;;;;4.21;91.50;101009.80;1729718;81;21029;-69
2022/01/24 11:38:42;;;;;;;4.03;3.05;;;;;;;4.21;91.68;101013.69;1762582;80;21152;-69
2022/01/24 11:41:25;;;;;;;3.92;3.05;;;;;;;4.19;91.54;101005.06;1764026;81;21676;-69
2022/01/24 11:43:55;;;;;;;3.95;3.25;;;;;;;4.21;91.78;101013.69;1754892;80;21099;-69
2022/01/24 11:46:48;;;;;;;4.70;3.52;;;;;;;4.28;91.95;101005.92;1731712;81;21116;-69
2022/01/24 11:49:38;;;;;;;6.17;4.67;;;;;;;4.33;91.86;101009.37;1760404;81;21017;-70
2022/01/24 11:52:14;;;;;;;5.08;4.05;;;;;;;4.33;91.73;101002.47;1727144;81;21144;-70
2022/01/24 11:57:36;;;;;;;3.50;3.20;;;;;;;4.37;91.87;101004.20;1729304;81;21254;-70
2022/01/24 12:00:08;;;;;;;4.53;3.02;;;;;;;4.43;92.05;100990.40;1755965;79;21100;-70
2022/01/24 12:02:57;;;;;;;4.85;2.52;;;;;;;4.47;91.88;100994.69;1738978;81;21124;-70
2022/01/24 12:05:31;;;;;;;3.55;2.80;;;;;;;4.43;91.66;100996.42;1757175;80;21115;-70
2022/01/24 12:08:02;;;;;;;3.98;2.65;;;;;;;4.43;91.84;100999.45;1758031;80;21052;-70
2022/01/24 12:10:38;;;;;;;3.55;2.25;;;;;;;4.43;91.74;101000.74;1756634;80;21116;-70
2022/01/24 12:13:19;;;;;;;3.87;3.47;;;;;;;4.38;91.71;100990.84;1755300;81;21026;-69
2022/01/24 12:16:03;;;;;;;5.12;3.77;;;;;;;4.33;91.63;100984.80;1761842;80;21333;-70
2022/01/24 12:18:36;;;;;;;;;;;;;;;4.33;91.88;100983.51;1730951;81;21127;-70
2022/01/24 12:21:11;;;;;;;2.58;2.00;;;;;;;4.29;91.80;100982.66;1758494;80;21185;-70
2022/01/24 12:23:44;;;;;;;2.45;1.87;;;;;;;4.29;91.97;100977.93;1729431;81;21556;-70
2022/01/24 12:26:19;;;;;;;2.37;1.80;;;;;;;4.30;92.04;100978.34;1746481;81;21080;-70
2022/01/24 12:28:53;;;;;;;2.72;2.05;;;;;;;4.30;92.03;100982.22;1744044;81;21729;-70
2022/01/24 12:31:49;;;;;;;2.37;2.00;;;;;;;4.38;92.38;100979.20;1749462;80;21118;-70
2022/01/24 12:34:24;;;;;;;3.72;2.27;;;;;;;4.48;92.45;100975.70;1759210;80;21106;-70
2022/01/24 12:37:00;;;;;;;3.92;2.67;;;;;;;4.54;92.26;100973.54;1747978;80;21839;-70
2022/01/24 12:39:36;;;;;;;3.08;2.37;;;;;;;4.57;92.08;100961.92;1762729;80;22536;-70
2022/01/24 12:42:14;;;;;;;2.55;1.98;;;;;;;4.56;92.02;100961.03;1753737;81;21022;-70
2022/01/24 12:47:18;;;;;;;3.55;2.77;;;;;;;4.60;92.16;100960.17;1759543;80;21111;-70
2022/01/24 12:49:50;;;;;;;2.70;1.92;;;;;;;4.63;92.21;100961.45;1755999;80;22248;-70
2022/01/24 12:52:28;;;;;;;2.92;2.40;;;;;;;4.62;91.93;100953.28;1754215;81;21126;-70
2022/01/24 12:54:58;;;;;;;2.90;2.52;;;;;;;4.61;92.02;100955.86;1757762;80;21150;-70
2022/01/24 12:57:32;;;;;;;2.62;1.85;;;;;;;4.68;92.31;100953.25;1757402;80;21025;-69
2022/01/24 13:00:13;;;;;;;3.00;2.40;;;;;;;4.73;92.24;100947.19;1760384;81;21058;-70
2022/01/24 13:02:41;;;;;;;2.95;1.98;;;;;;;4.67;91.90;100943.75;1755551;80;21435;-69
2022/01/24 13:05:15;;;;;;;3.15;2.30;;;;;;;4.58;91.88;100943.79;1735186;81;21158;-71
2022/01/24 13:07:55;;;;;;;2.92;1.92;;;;;;;4.54;91.95;100936.92;1754675;81;21526;-72
2022/01/24 13:10:29;;;;;;;2.47;1.55;;;;;;;4.54;92.04;100942.09;1750013;80;21099;-71
2022/01/24 13:13:06;;;;;;;3.65;2.00;;;;;;;4.45;91.88;100932.64;1752447;79;21127;-71
2022/01/24 13:21:17;;;;;;;2.87;1.75;;;;;;;4.21;92.01;100934.84;1753759;81;21559;-71
2022/01/24 13:23:57;;;;;;;2.37;1.32;;;;;;;4.16;92.15;100939.14;1748552;80;21044;-72
2022/01/24 13:26:22;;;;;;;1.87;1.55;;;;;;;4.14;92.23;100934.41;1751991;79;22072;-74
2022/01/24 13:28:49;;;;;;;2.20;2.00;;;;;;;4.11;92.24;100929.24;1752691;80;21558;-71
2022/01/24 13:31:16;;;;;;;3.17;2.08;;;;;;;4.07;92.22;100924.95;1730460;81;21556;-71
2022/01/24 13:33:46;;;;;;;3.08;2.15;;;;;;;4.07;92.29;100927.54;1754651;80;21250;-70